• Join FlightAware (Why Join?)
  • Login
  • US Flag 
03:41PM EDT


 

Airport Tracker/Info


-or-


 

Live Flight TrackerFlight Track Log ✈ N8094A ✈ 30-Aug-2014 ✈ KIAG - 58N

Flight Track Log - Related Links

Times and Time Zones

All times are in EDT time to prevent confusion due to time zone crossing. See the N8094A flight status page for this flight to view local times or setup timezone preferences in your user account.

Time Position Orientation Groundspeed Altitude Reporting Facility
EDT Latitude Longitude Course Direction KTS MPH feet Rate Location/Type
07:07PM 43.1000 -78.9500 147° Southeast 94 108 800  Level Buffalo TRACON
07:08PM 43.1000 -78.9500 147° Southeast 82 94 1,100 660 Climbing Buffalo TRACON
07:09PM 43.0667 -78.9500 180° South 85 98 1,800 480 Climbing Buffalo TRACON
07:10PM 43.0500 -78.9333 144° Southeast 92 106 2,100 300 Climbing Buffalo TRACON
07:10PM 43.0167 -78.9333 180° South 106 122 2,400 240 Climbing Buffalo TRACON
07:11PM 43.0000 -78.9000 124° Southeast 114 131 2,600 240 Climbing Buffalo TRACON
07:12PM 42.9667 -78.8833 160° South 106 122 3,000 360 Climbing Buffalo TRACON
07:13PM 42.9084 -78.7759 147° Southeast  Level FlightAware Approximate
07:14PM 42.9500 -78.8667 144° Southeast 104 120 3,400  Level Buffalo TRACON
07:15PM 42.9167 -78.8500 160° South 104 120 3,800 300 Climbing Buffalo TRACON
07:16PM 42.8833 -78.8333 160° South 104 120 4,100 300 Climbing Buffalo TRACON
07:17PM 42.8667 -78.8167 144° Southeast 105 121 4,500 360 Climbing Buffalo TRACON
07:18PM 42.8333 -78.8000 160° South 104 120 4,900 360 Climbing Buffalo TRACON
07:19PM 42.8061 -78.7733 144° Southeast 105 121 5,300 180 Climbing Cleveland Center
07:20PM 42.7764 -78.7506 151° Southeast 113 130 5,400 60 Climbing Cleveland Center
07:21PM 42.7458 -78.7311 155° Southeast 121 139 5,500  Climbing Cleveland Center
07:22PM 42.7117 -78.7061 152° Southeast 130 150 5,400  Descending Cleveland Center
07:23PM 42.6772 -78.6806 151° Southeast 132 152 5,500  Climbing Cleveland Center
07:24PM 42.6453 -78.6519 147° Southeast 132 152 5,500 -60 Level Cleveland Center
07:25PM 42.6117 -78.6269 151° Southeast 140 161 5,400 -60 Descending Cleveland Center
07:26PM 42.5778 -78.5997 149° Southeast 140 161 5,400  Level Cleveland Center
07:27PM 42.5444 -78.5722 149° Southeast 137 158 5,400  Level Cleveland Center
07:28PM 42.5114 -78.5456 149° Southeast 138 159 5,400  Level Cleveland Center
07:29PM 42.4775 -78.5178 149° Southeast 140 161 5,400 -60 Level Cleveland Center
07:30PM 42.4425 -78.4917 151° Southeast 141 162 5,300 -120 Descending Cleveland Center
07:31PM 42.4078 -78.4639 149° Southeast 141 162 5,200  Descending Cleveland Center
07:32PM 42.3739 -78.4353 148° Southeast 141 162 5,300  Climbing Cleveland Center
07:33PM 42.3406 -78.4072 148° Southeast 141 162 5,300  Level Cleveland Center
07:34PM 42.3067 -78.3806 150° Southeast 141 162 5,300  Level Cleveland Center
07:35PM 42.2733 -78.3528 148° Southeast 141 162 5,300 -60 Level Cleveland Center
07:36PM 42.2328 -78.3217 150° Southeast 141 162 5,200 -60 Descending Cleveland Center
07:37PM 42.1981 -78.2950 150° Southeast 141 162 5,200  Level Cleveland Center
07:38PM 42.1667 -78.2700 149° Southeast 141 162 5,200  Level Cleveland Center
07:39PM 42.1342 -78.2444 150° Southeast 139 160 5,300  Climbing Cleveland Center
07:40PM 42.1014 -78.2172 148° Southeast 138 159 5,300  Level Cleveland Center
07:41PM 42.0669 -78.1897 149° Southeast 139 160 5,300  Level Cleveland Center
07:42PM 42.0333 -78.1631 149° Southeast 139 160 5,400  Climbing Cleveland Center
07:43PM 41.9989 -78.1356 149° Southeast 139 160 5,400  Level Cleveland Center
07:44PM 41.9650 -78.1086 149° Southeast 140 161 5,400  Level Cleveland Center
07:45PM 41.9311 -78.0814 149° Southeast 140 161 5,500  Climbing Cleveland Center
07:46PM 41.8897 -78.0492 150° Southeast 145 167 5,500  Level Cleveland Center
07:47PM 41.8547 -78.0225 150° Southeast 145 167 5,500 -60 Level Cleveland Center
07:48PM 41.8189 -77.9972 152° Southeast 145 167 5,400 -60 Descending Cleveland Center
07:49PM 41.7836 -77.9714 151° Southeast 145 167 5,400  Level Cleveland Center
07:50PM 41.7483 -77.9464 152° Southeast 145 167 5,400  Level Cleveland Center
07:51PM 41.7119 -77.9189 151° Southeast 145 167 5,400  Level Cleveland Center
07:52PM 41.6781 -77.8936 151° Southeast 145 167 5,400  Level Cleveland Center
07:54PM 41.6433 -77.8656 149° Southeast 145 167 5,400  Level Cleveland Center
07:55PM 41.5994 -77.8333 151° Southeast 147 169 5,400 -60 Level Cleveland Center
07:56PM 41.5650 -77.8058 149° Southeast 147 169 5,300 -60 Descending Cleveland Center
07:57PM 41.5303 -77.7789 150° Southeast 147 169 5,300 -60 Level Cleveland Center
07:58PM 41.4942 -77.7500 149° Southeast 147 169 5,200 -60 Descending Cleveland Center
07:59PM 41.4589 -77.7225 150° Southeast 147 169 5,200  Level Cleveland Center
08:00PM 41.4228 -77.6944 150° Southeast 148 170 5,200 -180 Level Cleveland Center
08:01PM 41.3864 -77.6697 153° Southeast 148 170 4,900 -300 Descending Cleveland Center
08:02PM 41.3506 -77.6417 150° Southeast 148 170 4,700 -180 Descending Cleveland Center
08:03PM 41.3169 -77.6092 144° Southeast 148 170 4,600 -180 Descending Cleveland Center
08:04PM 41.2822 -77.5797 147° Southeast 148 170 4,400 -180 Descending Cleveland Center
08:05PM 41.2394 -77.5483 151° Southeast 148 170 4,300  Descending Cleveland Center
08:06PM 41.2064 -77.5233 150° Southeast 147 169 4,400  Climbing Cleveland Center
08:07PM 41.1733 -77.4956 148° Southeast 144 166 4,300 -60 Descending Cleveland Center
08:08PM 41.1394 -77.4700 150° Southeast 144 166 4,300  Level Cleveland Center